sensor_id;sensor_type;location;lat;lon;timestamp;pressure;altitude;pressure_sealevel;temperature;humidity
30897;BME280;64229;52.246;21.054;2023-11-22T00:00:13;101191.00;;;-2.01;92.41
30897;BME280;64229;52.246;21.054;2023-11-22T00:02:39;101190.66;;;-2.07;92.34
30897;BME280;64229;52.246;21.054;2023-11-22T00:05:05;101193.75;;;-2.11;92.40
30897;BME280;64229;52.246;21.054;2023-11-22T00:07:32;101187.22;;;-2.07;91.70
30897;BME280;64229;52.246;21.054;2023-11-22T00:09:57;101195.25;;;-2.00;91.34
30897;BME280;64229;52.246;21.054;2023-11-22T00:12:24;101196.53;;;-2.05;91.32
30897;BME280;64229;52.246;21.054;2023-11-22T00:14:50;101197.19;;;-2.11;91.71
30897;BME280;64229;52.246;21.054;2023-11-22T00:17:16;101197.00;;;-2.17;92.07
30897;BME280;64229;52.246;21.054;2023-11-22T00:19:43;101199.81;;;-2.11;92.11
30897;BME280;64229;52.246;21.054;2023-11-22T00:22:09;101206.16;;;-2.13;91.91
30897;BME280;64229;52.246;21.054;2023-11-22T00:24:41;101202.88;;;-2.15;91.62
30897;BME280;64229;52.246;21.054;2023-11-22T00:27:07;101206.16;;;-2.21;91.37
30897;BME280;64229;52.246;21.054;2023-11-22T00:29:34;101188.28;;;-2.34;91.09
30897;BME280;64229;52.246;21.054;2023-11-22T00:31:59;101200.91;;;-2.29;91.16
30897;BME280;64229;52.246;21.054;2023-11-22T00:34:25;101205.47;;;-2.23;90.65
30897;BME280;64229;52.246;21.054;2023-11-22T00:36:50;101217.59;;;-2.14;90.32
30897;BME280;64229;52.246;21.054;2023-11-22T00:39:16;101223.66;;;-2.22;90.53
30897;BME280;64229;52.246;21.054;2023-11-22T00:41:42;101219.84;;;-2.27;90.75
30897;BME280;64229;52.246;21.054;2023-11-22T00:44:09;101209.69;;;-2.39;90.91
30897;BME280;64229;52.246;21.054;2023-11-22T00:46:34;101214.59;;;-2.36;90.93
30897;BME280;64229;52.246;21.054;2023-11-22T00:49:00;101225.25;;;-2.29;90.78
30897;BME280;64229;52.246;21.054;2023-11-22T00:51:25;101219.66;;;-2.34;90.41
30897;BME280;64229;52.246;21.054;2023-11-22T00:53:51;101212.91;;;-2.45;89.69
30897;BME280;64229;52.246;21.054;2023-11-22T00:56:17;101230.75;;;-2.40;89.25
30897;BME280;64229;52.246;21.054;2023-11-22T00:58:42;101236.81;;;-2.40;89.39
30897;BME280;64229;52.246;21.054;2023-11-22T01:01:08;101226.97;;;-2.46;89.47
30897;BME280;64229;52.246;21.054;2023-11-22T01:03:33;101234.81;;;-2.46;90.03
30897;BME280;64229;52.246;21.054;2023-11-22T01:05:59;101244.94;;;-2.51;89.43
30897;BME280;64229;52.246;21.054;2023-11-22T01:08:24;101252.09;;;-2.53;89.31
30897;BME280;64229;52.246;21.054;2023-11-22T01:10:50;101247.03;;;-2.54;89.20
30897;BME280;64229;52.246;21.054;2023-11-22T01:13:15;101256.19;;;-2.50;88.78
30897;BME280;64229;52.246;21.054;2023-11-22T01:15:41;101255.06;;;-2.48;88.98
30897;BME280;64229;52.246;21.054;2023-11-22T01:18:07;101259.97;;;-2.45;88.37
30897;BME280;64229;52.246;21.054;2023-11-22T01:20:32;101251.94;;;-2.51;89.11
30897;BME280;64229;52.246;21.054;2023-11-22T01:22:58;101248.69;;;-2.53;89.70
30897;BME280;64229;52.246;21.054;2023-11-22T01:25:23;101248.50;;;-2.52;89.43
30897;BME280;64229;52.246;21.054;2023-11-22T01:27:48;101254.13;;;-2.39;88.13
30897;BME280;64229;52.246;21.054;2023-11-22T01:30:13;101262.56;;;-2.53;87.78
30897;BME280;64229;52.246;21.054;2023-11-22T01:32:39;101243.34;;;-2.70;88.14
30897;BME280;64229;52.246;21.054;2023-11-22T01:35:05;101263.00;;;-2.57;87.99
30897;BME280;64229;52.246;21.054;2023-11-22T01:37:31;101263.06;;;-2.49;86.57
30897;BME280;64229;52.246;21.054;2023-11-22T01:39:57;101247.81;;;-2.62;86.30
30897;BME280;64229;52.246;21.054;2023-11-22T01:42:23;101271.16;;;-2.60;86.35
30897;BME280;64229;52.246;21.054;2023-11-22T01:44:50;101262.63;;;-2.71;86.25
30897;BME280;64229;52.246;21.054;2023-11-22T01:47:16;101271.44;;;-2.72;86.07
30897;BME280;64229;52.246;21.054;2023-11-22T01:49:42;101266.88;;;-2.70;86.12
30897;BME280;64229;52.246;21.054;2023-11-22T01:52:08;101267.34;;;-2.74;85.69
30897;BME280;64229;52.246;21.054;2023-11-22T01:54:34;101275.03;;;-2.73;86.08
30897;BME280;64229;52.246;21.054;2023-11-22T01:57:00;101287.88;;;-2.79;85.87
30897;BME280;64229;52.246;21.054;2023-11-22T01:59:27;101276.50;;;-2.70;85.24
30897;BME280;64229;52.246;21.054;2023-11-22T02:01:54;101283.84;;;-2.74;85.13
30897;BME280;64229;52.246;21.054;2023-11-22T02:04:20;101283.53;;;-2.71;84.46
30897;BME280;64229;52.246;21.054;2023-11-22T02:06:46;101281.00;;;-2.80;84.02
30897;BME280;64229;52.246;21.054;2023-11-22T02:09:12;101275.69;;;-2.97;84.23
30897;BME280;64229;52.246;21.054;2023-11-22T02:11:44;101261.94;;;-2.99;84.59
30897;BME280;64229;52.246;21.054;2023-11-22T02:14:13;101266.06;;;-2.96;84.55
30897;BME280;64229;52.246;21.054;2023-11-22T02:16:38;101287.47;;;-2.93;84.62
30897;BME280;64229;52.246;21.054;2023-11-22T02:19:06;101291.63;;;-3.00;84.24
30897;BME280;64229;52.246;21.054;2023-11-22T02:21:32;101303.28;;;-2.94;84.90
30897;BME280;64229;52.246;21.054;2023-11-22T02:23:57;101304.53;;;-2.98;85.10
30897;BME280;64229;52.246;21.054;2023-11-22T02:26:23;101298.81;;;-3.02;85.09
30897;BME280;64229;52.246;21.054;2023-11-22T02:28:50;101290.91;;;-3.10;85.37
30897;BME280;64229;52.246;21.054;2023-11-22T02:31:15;101308.75;;;-3.05;85.63
30897;BME280;64229;52.246;21.054;2023-11-22T02:33:41;101305.53;;;-2.99;86.06
30897;BME280;64229;52.246;21.054;2023-11-22T02:36:07;101311.56;;;-2.99;86.01
30897;BME280;64229;52.246;21.054;2023-11-22T02:38:33;101307.38;;;-2.92;85.39
30897;BME280;64229;52.246;21.054;2023-11-22T02:41:00;101287.94;;;-2.97;84.84
30897;BME280;64229;52.246;21.054;2023-11-22T02:43:25;101305.81;;;-2.84;84.74
30897;BME280;64229;52.246;21.054;2023-11-22T02:45:51;101295.22;;;-3.01;84.24
30897;BME280;64229;52.246;21.054;2023-11-22T02:48:17;101309.56;;;-3.05;84.41
30897;BME280;64229;52.246;21.054;2023-11-22T02:50:43;101319.19;;;-3.05;84.22
30897;BME280;64229;52.246;21.054;2023-11-22T02:53:09;101316.75;;;-3.07;84.11
30897;BME280;64229;52.246;21.054;2023-11-22T02:55:34;101328.09;;;-3.16;84.40
30897;BME280;64229;52.246;21.054;2023-11-22T02:58:00;101324.25;;;-3.22;85.11
30897;BME280;64229;52.246;21.054;2023-11-22T03:00:25;101336.66;;;-3.24;85.66
30897;BME280;64229;52.246;21.054;2023-11-22T03:02:50;101334.34;;;-3.27;85.40
30897;BME280;64229;52.246;21.054;2023-11-22T03:05:20;101338.22;;;-3.31;86.02
30897;BME280;64229;52.246;21.054;2023-11-22T03:07:45;101338.22;;;-3.31;86.23
30897;BME280;64229;52.246;21.054;2023-11-22T03:10:11;101344.25;;;-3.30;86.63
30897;BME280;64229;52.246;21.054;2023-11-22T03:12:36;101344.72;;;-3.35;86.63
30897;BME280;64229;52.246;21.054;2023-11-22T03:15:02;101339.94;;;-3.39;86.67
30897;BME280;64229;52.246;21.054;2023-11-22T03:17:29;101356.13;;;-3.36;87.08
30897;BME280;64229;52.246;21.054;2023-11-22T03:19:57;101349.06;;;-3.53;87.15
30897;BME280;64229;52.246;21.054;2023-11-22T03:22:24;101368.94;;;-3.42;86.99
30897;BME280;64229;52.246;21.054;2023-11-22T03:24:49;101364.75;;;-3.53;86.89
30897;BME280;64229;52.246;21.054;2023-11-22T03:27:15;101373.03;;;-3.58;87.58
30897;BME280;64229;52.246;21.054;2023-11-22T03:29:40;101381.38;;;-3.54;87.53
30897;BME280;64229;52.246;21.054;2023-11-22T03:32:06;101379.34;;;-3.60;87.13
30897;BME280;64229;52.246;21.054;2023-11-22T03:34:31;101383.88;;;-3.62;87.45
30897;BME280;64229;52.246;21.054;2023-11-22T03:36:56;101383.34;;;-3.66;87.47
30897;BME280;64229;52.246;21.054;2023-11-22T03:39:22;101380.00;;;-3.86;87.54
30897;BME280;64229;52.246;21.054;2023-11-22T03:41:48;101385.19;;;-3.76;87.40
30897;BME280;64229;52.246;21.054;2023-11-22T03:44:13;101402.50;;;-3.85;87.69
30897;BME280;64229;52.246;21.054;2023-11-22T03:46:38;101415.41;;;-3.83;87.76
30897;BME280;64229;52.246;21.054;2023-11-22T03:49:05;101421.78;;;-3.95;87.53
30897;BME280;64229;52.246;21.054;2023-11-22T03:51:32;101413.59;;;-4.10;87.53
30897;BME280;64229;52.246;21.054;2023-11-22T03:53:58;101402.22;;;-4.19;87.77
30897;BME280;64229;52.246;21.054;2023-11-22T03:56:23;101418.81;;;-4.10;88.41
30897;BME280;64229;52.246;21.054;2023-11-22T03:58:48;101427.03;;;-4.05;87.88
30897;BME280;64229;52.246;21.054;2023-11-22T04:01:14;101439.00;;;-4.12;87.94
30897;BME280;64229;52.246;21.054;2023-11-22T04:03:41;101437.75;;;-4.18;88.00
30897;BME280;64229;52.246;21.054;2023-11-22T04:06:06;101446.66;;;-4.11;87.83
30897;BME280;64229;52.246;21.054;2023-11-22T04:08:32;101458.47;;;-4.26;87.09
30897;BME280;64229;52.246;21.054;2023-11-22T04:10:57;101464.94;;;-4.30;87.48
30897;BME280;64229;52.246;21.054;2023-11-22T04:13:22;101469.88;;;-4.37;87.40
30897;BME280;64229;52.246;21.054;2023-11-22T04:15:50;101483.06;;;-4.38;87.77
30897;BME280;64229;52.246;21.054;2023-11-22T04:18:15;101477.84;;;-4.38;87.57
30897;BME280;64229;52.246;21.054;2023-11-22T04:20:41;101477.59;;;-4.45;87.38
30897;BME280;64229;52.246;21.054;2023-11-22T04:23:06;101480.44;;;-4.48;87.84
30897;BME280;64229;52.246;21.054;2023-11-22T04:25:31;101475.00;;;-4.54;88.31
30897;BME280;64229;52.246;21.054;2023-11-22T04:27:59;101458.78;;;-4.48;87.72
30897;BME280;64229;52.246;21.054;2023-11-22T04:30:24;101488.03;;;-4.45;87.96
30897;BME280;64229;52.246;21.054;2023-11-22T04:32:50;101486.09;;;-4.52;88.24
30897;BME280;64229;52.246;21.054;2023-11-22T04:35:15;101491.84;;;-4.58;88.06
30897;BME280;64229;52.246;21.054;2023-11-22T04:37:40;101480.72;;;-4.70;88.37
30897;BME280;64229;52.246;21.054;2023-11-22T04:40:06;101486.91;;;-4.71;88.70
30897;BME280;64229;52.246;21.054;2023-11-22T04:42:34;101500.34;;;-4.66;88.69
30897;BME280;64229;52.246;21.054;2023-11-22T04:45:02;101497.59;;;-4.74;88.87
30897;BME280;64229;52.246;21.054;2023-11-22T04:47:27;101509.94;;;-4.67;89.15
30897;BME280;64229;52.246;21.054;2023-11-22T04:49:53;101509.66;;;-4.73;88.86
30897;BME280;64229;52.246;21.054;2023-11-22T04:52:18;101516.94;;;-4.77;89.02
30897;BME280;64229;52.246;21.054;2023-11-22T04:54:43;101499.66;;;-4.87;89.28
30897;BME280;64229;52.246;21.054;2023-11-22T04:57:09;101515.16;;;-4.76;89.42
30897;BME280;64229;52.246;21.054;2023-11-22T04:59:35;101517.75;;;-4.76;89.20
30897;BME280;64229;52.246;21.054;2023-11-22T05:02:00;101519.25;;;-4.74;88.67
30897;BME280;64229;52.246;21.054;2023-11-22T05:04:26;101526.91;;;-4.82;88.31
30897;BME280;64229;52.246;21.054;2023-11-22T05:06:52;101526.66;;;-4.88;88.69
30897;BME280;64229;52.246;21.054;2023-11-22T05:09:17;101524.44;;;-4.93;88.61
30897;BME280;64229;52.246;21.054;2023-11-22T05:11:43;101543.06;;;-4.98;88.32
30897;BME280;64229;52.246;21.054;2023-11-22T05:14:10;101553.19;;;-5.04;88.64
30897;BME280;64229;52.246;21.054;2023-11-22T05:16:35;101558.38;;;-5.04;89.28
30897;BME280;64229;52.246;21.054;2023-11-22T05:19:00;101560.03;;;-5.03;89.38
30897;BME280;64229;52.246;21.054;2023-11-22T05:21:26;101566.19;;;-5.04;89.57
30897;BME280;64229;52.246;21.054;2023-11-22T05:23:51;101564.28;;;-5.02;89.84
30897;BME280;64229;52.246;21.054;2023-11-22T05:26:20;101538.91;;;-5.10;89.75
30897;BME280;64229;52.246;21.054;2023-11-22T05:28:46;101557.16;;;-5.00;88.94
30897;BME280;64229;52.246;21.054;2023-11-22T05:31:12;101555.91;;;-5.06;89.19
30897;BME280;64229;52.246;21.054;2023-11-22T05:33:38;101561.94;;;-5.05;89.17
30897;BME280;64229;52.246;21.054;2023-11-22T05:36:03;101564.94;;;-5.10;89.63
30897;BME280;64229;52.246;21.054;2023-11-22T05:38:28;101575.59;;;-5.13;89.52
30897;BME280;64229;52.246;21.054;2023-11-22T05:40:54;101585.75;;;-5.19;89.46
30897;BME280;64229;52.246;21.054;2023-11-22T05:43:19;101574.06;;;-5.25;89.57
30897;BME280;64229;52.246;21.054;2023-11-22T05:45:50;101581.59;;;-5.22;89.67
30897;BME280;64229;52.246;21.054;2023-11-22T05:48:16;101578.44;;;-5.26;89.76
30897;BME280;64229;52.246;21.054;2023-11-22T05:50:41;101584.19;;;-5.22;89.92
30897;BME280;64229;52.246;21.054;2023-11-22T05:53:06;101595.19;;;-5.18;89.86
30897;BME280;64229;52.246;21.054;2023-11-22T05:55:32;101590.22;;;-5.21;89.84
30897;BME280;64229;52.246;21.054;2023-11-22T05:57:57;101603.22;;;-5.31;89.86
30897;BME280;64229;52.246;21.054;2023-11-22T06:00:22;101611.03;;;-5.31;89.83
30897;BME280;64229;52.246;21.054;2023-11-22T06:02:48;101615.28;;;-5.30;90.22
30897;BME280;64229;52.246;21.054;2023-11-22T06:05:13;101583.94;;;-5.49;90.11
30897;BME280;64229;52.246;21.054;2023-11-22T06:07:38;101606.59;;;-5.40;89.92
30897;BME280;64229;52.246;21.054;2023-11-22T06:10:04;101611.78;;;-5.40;90.35
30897;BME280;64229;52.246;21.054;2023-11-22T06:12:30;101600.09;;;-5.46;90.71
30897;BME280;64229;52.246;21.054;2023-11-22T06:14:55;101617.00;;;-5.40;89.85
30897;BME280;64229;52.246;21.054;2023-11-22T06:17:20;101605.88;;;-5.42;89.67
30897;BME280;64229;52.246;21.054;2023-11-22T06:19:45;101617.50;;;-5.46;90.47
30897;BME280;64229;52.246;21.054;2023-11-22T06:22:11;101612.22;;;-5.56;91.04
30897;BME280;64229;52.246;21.054;2023-11-22T06:24:37;101630.38;;;-5.45;91.14
30897;BME280;64229;52.246;21.054;2023-11-22T06:27:02;101637.50;;;-5.47;91.15
30897;BME280;64229;52.246;21.054;2023-11-22T06:29:28;101635.03;;;-5.48;90.75
30897;BME280;64229;52.246;21.054;2023-11-22T06:31:54;101647.97;;;-5.37;90.60
30897;BME280;64229;52.246;21.054;2023-11-22T06:34:20;101631.47;;;-5.47;90.82
30897;BME280;64229;52.246;21.054;2023-11-22T06:36:45;101649.19;;;-5.41;90.81
30897;BME280;64229;52.246;21.054;2023-11-22T06:39:10;101649.28;;;-5.43;91.40
30897;BME280;64229;52.246;21.054;2023-11-22T06:41:40;101659.59;;;-5.41;91.23
30897;BME280;64229;52.246;21.054;2023-11-22T06:44:06;101661.09;;;-5.39;91.04
30897;BME280;64229;52.246;21.054;2023-11-22T06:46:31;101667.25;;;-5.40;91.22
30897;BME280;64229;52.246;21.054;2023-11-22T06:48:57;101674.25;;;-5.40;91.72
30897;BME280;64229;52.246;21.054;2023-11-22T06:51:22;101668.22;;;-5.41;91.51
30897;BME280;64229;52.246;21.054;2023-11-22T06:53:48;101678.38;;;-5.38;91.51
30897;BME280;64229;52.246;21.054;2023-11-22T06:56:13;101673.59;;;-5.33;90.87
30897;BME280;64229;52.246;21.054;2023-11-22T06:58:39;101685.09;;;-5.35;90.71
30897;BME280;64229;52.246;21.054;2023-11-22T07:01:05;101684.25;;;-5.36;90.61
30897;BME280;64229;52.246;21.054;2023-11-22T07:03:32;101697.84;;;-5.32;90.66
30897;BME280;64229;52.246;21.054;2023-11-22T07:05:57;101688.84;;;-5.28;89.96
30897;BME280;64229;52.246;21.054;2023-11-22T07:08:24;101674.81;;;-5.37;90.40
30897;BME280;64229;52.246;21.054;2023-11-22T07:10:50;101685.53;;;-5.30;90.95
30897;BME280;64229;52.246;21.054;2023-11-22T07:13:17;101705.00;;;-5.25;90.73
30897;BME280;64229;52.246;21.054;2023-11-22T07:15:43;101704.75;;;-5.21;90.62
30897;BME280;64229;52.246;21.054;2023-11-22T07:18:08;101706.28;;;-5.19;90.72
30897;BME280;64229;52.246;21.054;2023-11-22T07:20:35;101712.88;;;-5.15;90.56
30897;BME280;64229;52.246;21.054;2023-11-22T07:23:00;101721.16;;;-5.10;89.92
30897;BME280;64229;52.246;21.054;2023-11-22T07:25:25;101720.06;;;-5.07;90.24
30897;BME280;64229;52.246;21.054;2023-11-22T07:27:52;101715.16;;;-5.01;89.89
30897;BME280;64229;52.246;21.054;2023-11-22T07:30:18;101721.31;;;-5.02;89.64
30897;BME280;64229;52.246;21.054;2023-11-22T07:32:52;101719.31;;;-4.98;89.61
30897;BME280;64229;52.246;21.054;2023-11-22T07:35:18;101729.59;;;-4.97;88.85
30897;BME280;64229;52.246;21.054;2023-11-22T07:37:46;101727.13;;;-4.98;88.80
30897;BME280;64229;52.246;21.054;2023-11-22T07:40:13;101739.72;;;-4.93;89.16
30897;BME280;64229;52.246;21.054;2023-11-22T07:42:39;101727.13;;;-4.98;89.37
30897;BME280;64229;52.246;21.054;2023-11-22T07:45:05;101728.41;;;-4.83;89.25
30897;BME280;64229;52.246;21.054;2023-11-22T07:47:30;101731.06;;;-4.73;89.19
30897;BME280;64229;52.246;21.054;2023-11-22T07:49:56;101727.50;;;-4.72;88.30
30897;BME280;64229;52.246;21.054;2023-11-22T07:52:22;101708.28;;;-4.81;88.33
30897;BME280;64229;52.246;21.054;2023-11-22T07:54:47;101742.22;;;-4.61;88.66
30897;BME280;64229;52.246;21.054;2023-11-22T07:57:13;101732.63;;;-4.61;88.50
30897;BME280;64229;52.246;21.054;2023-11-22T07:59:39;101739.34;;;-4.58;87.23
30897;BME280;64229;52.246;21.054;2023-11-22T08:02:05;101727.19;;;-4.48;86.98
30897;BME280;64229;52.246;21.054;2023-11-22T08:04:36;101729.16;;;-4.41;86.84
30897;BME280;64229;52.246;21.054;2023-11-22T08:07:03;101711.72;;;-4.40;85.68
30897;BME280;64229;52.246;21.054;2023-11-22T08:09:28;101724.53;;;-4.27;85.24
30897;BME280;64229;52.246;21.054;2023-11-22T08:11:58;101725.91;;;-4.23;84.95
30897;BME280;64229;52.246;21.054;2023-11-22T08:14:24;101722.91;;;-4.19;85.49
30897;BME280;64229;52.246;21.054;2023-11-22T08:16:53;101746.56;;;-4.01;85.20
30897;BME280;64229;52.246;21.054;2023-11-22T08:19:18;101734.75;;;-3.95;84.77
30897;BME280;64229;52.246;21.054;2023-11-22T08:21:43;101747.41;;;-3.91;83.60
30897;BME280;64229;52.246;21.054;2023-11-22T08:24:09;101747.56;;;-3.83;83.27
30897;BME280;64229;52.246;21.054;2023-11-22T08:26:34;101752.38;;;-3.78;82.88
30897;BME280;64229;52.246;21.054;2023-11-22T08:29:00;101746.03;;;-3.75;82.66
30897;BME280;64229;52.246;21.054;2023-11-22T08:31:26;101756.09;;;-3.61;82.62
30897;BME280;64229;52.246;21.054;2023-11-22T08:33:51;101759.50;;;-3.51;82.25
30897;BME280;64229;52.246;21.054;2023-11-22T08:36:17;101770.53;;;-3.47;82.06
30897;BME280;64229;52.246;21.054;2023-11-22T08:38:43;101756.63;;;-3.58;81.37
30897;BME280;64229;52.246;21.054;2023-11-22T08:41:10;101766.81;;;-3.35;80.95
30897;BME280;64229;52.246;21.054;2023-11-22T08:43:38;101771.06;;;-3.34;81.46
30897;BME280;64229;52.246;21.054;2023-11-22T08:46:04;101766.28;;;-3.29;81.25
30897;BME280;64229;52.246;21.054;2023-11-22T08:48:30;101779.28;;;-3.20;81.61
30897;BME280;64229;52.246;21.054;2023-11-22T08:50:55;101779.19;;;-3.18;81.49
30897;BME280;64229;52.246;21.054;2023-11-22T08:53:22;101769.56;;;-3.17;81.27
30897;BME280;64229;52.246;21.054;2023-11-22T08:55:48;101781.66;;;-3.07;80.92
30897;BME280;64229;52.246;21.054;2023-11-22T08:58:13;101766.13;;;-3.08;80.99
30897;BME280;64229;52.246;21.054;2023-11-22T09:00:39;101782.31;;;-2.95;79.72
30897;BME280;64229;52.246;21.054;2023-11-22T09:03:09;101793.03;;;-2.98;80.15
30897;BME280;64229;52.246;21.054;2023-11-22T09:05:38;101807.47;;;-2.94;80.34
30897;BME280;64229;52.246;21.054;2023-11-22T09:08:04;101804.44;;;-2.89;80.79
30897;BME280;64229;52.246;21.054;2023-11-22T09:10:29;101810.59;;;-2.81;79.92
30897;BME280;64229;52.246;21.054;2023-11-22T09:12:55;101798.53;;;-2.92;80.17
30897;BME280;64229;52.246;21.054;2023-11-22T09:15:24;101815.97;;;-2.73;79.89
30897;BME280;64229;52.246;21.054;2023-11-22T09:17:51;101821.88;;;-2.71;79.86
30897;BME280;64229;52.246;21.054;2023-11-22T09:20:18;101806.59;;;-2.66;78.23
30897;BME280;64229;52.246;21.054;2023-11-22T09:22:49;101797.25;;;-2.68;78.85
30897;BME280;64229;52.246;21.054;2023-11-22T09:25:19;101804.41;;;-2.70;78.67
30897;BME280;64229;52.246;21.054;2023-11-22T09:27:46;101799.59;;;-2.65;78.51
30897;BME280;64229;52.246;21.054;2023-11-22T09:30:13;101802.59;;;-2.60;78.70
30897;BME280;64229;52.246;21.054;2023-11-22T09:32:47;101790.03;;;-2.47;77.23
30897;BME280;64229;52.246;21.054;2023-11-22T09:35:14;101799.41;;;-2.44;76.35
30897;BME280;64229;52.246;21.054;2023-11-22T09:37:40;101786.84;;;-2.41;76.57
30897;BME280;64229;52.246;21.054;2023-11-22T09:40:10;101767.56;;;-2.40;76.20
30897;BME280;64229;52.246;21.054;2023-11-22T09:42:36;101772.63;;;-2.28;76.11
30897;BME280;64229;52.246;21.054;2023-11-22T09:45:02;101770.31;;;-2.31;75.40
30897;BME280;64229;52.246;21.054;2023-11-22T09:47:32;101762.72;;;-2.35;75.71
30897;BME280;64229;52.246;21.054;2023-11-22T09:49:58;101761.78;;;-2.34;75.83
30897;BME280;64229;52.246;21.054;2023-11-22T09:52:27;101753.63;;;-2.30;74.49
30897;BME280;64229;52.246;21.054;2023-11-22T09:54:54;101743.19;;;-2.30;72.28
30897;BME280;64229;52.246;21.054;2023-11-22T09:57:21;101744.41;;;-2.35;70.07
30897;BME280;64229;52.246;21.054;2023-11-22T09:59:50;101732.94;;;-2.24;71.38
30897;BME280;64229;52.246;21.054;2023-11-22T10:02:17;101734.84;;;-2.16;71.30
30897;BME280;64229;52.246;21.054;2023-11-22T10:04:43;101748.22;;;-2.19;70.49
30897;BME280;64229;52.246;21.054;2023-11-22T10:07:09;101741.59;;;-2.23;71.52
30897;BME280;64229;52.246;21.054;2023-11-22T10:09:35;101744.47;;;-2.17;72.46
30897;BME280;64229;52.246;21.054;2023-11-22T10:12:03;101752.16;;;-2.15;72.59
30897;BME280;64229;52.246;21.054;2023-11-22T10:14:30;101748.31;;;-2.11;72.29
30897;BME280;64229;52.246;21.054;2023-11-22T10:17:02;101731.66;;;-2.10;73.17
30897;BME280;64229;52.246;21.054;2023-11-22T10:19:28;101748.34;;;-1.93;73.41
30897;BME280;64229;52.246;21.054;2023-11-22T10:22:07;101745.81;;;-1.85;72.86
30897;BME280;64229;52.246;21.054;2023-11-22T10:24:33;101751.56;;;-1.82;72.20
30897;BME280;64229;52.246;21.054;2023-11-22T10:27:00;101756.06;;;-1.74;72.63
30897;BME280;64229;52.246;21.054;2023-11-22T10:29:26;101752.88;;;-1.68;72.54
30897;BME280;64229;52.246;21.054;2023-11-22T10:31:52;101741.03;;;-1.72;72.58
30897;BME280;64229;52.246;21.054;2023-11-22T10:34:22;101739.31;;;-1.63;71.88
30897;BME280;64229;52.246;21.054;2023-11-22T10:36:48;101735.34;;;-1.67;71.86
30897;BME280;64229;52.246;21.054;2023-11-22T10:39:21;101764.31;;;-1.33;70.71
30897;BME280;64229;52.246;21.054;2023-11-22T10:41:47;101752.72;;;-1.49;69.45
30897;BME280;64229;52.246;21.054;2023-11-22T10:44:13;101753.16;;;-1.53;69.99
30897;BME280;64229;52.246;21.054;2023-11-22T10:46:41;101758.22;;;-1.52;70.78
30897;BME280;64229;52.246;21.054;2023-11-22T10:49:06;101764.38;;;-1.43;71.01
30897;BME280;64229;52.246;21.054;2023-11-22T10:51:33;101775.09;;;-1.36;70.13
30897;BME280;64229;52.246;21.054;2023-11-22T10:54:00;101758.69;;;-1.38;70.58
30897;BME280;64229;52.246;21.054;2023-11-22T10:56:44;101765.13;;;-1.33;70.20
30897;BME280;64229;52.246;21.054;2023-11-22T10:59:13;101769.63;;;-1.25;71.48
30897;BME280;64229;52.246;21.054;2023-11-22T11:01:43;101764.13;;;-1.14;70.33
30897;BME280;64229;52.246;21.054;2023-11-22T11:04:19;101755.91;;;-1.19;68.72
30897;BME280;64229;52.246;21.054;2023-11-22T11:06:47;101752.91;;;-1.24;69.47
30897;BME280;64229;52.246;21.054;2023-11-22T11:09:17;101756.06;;;-1.21;70.23
30897;BME280;64229;52.246;21.054;2023-11-22T11:11:46;101760.69;;;-1.14;68.83
30897;BME280;64229;52.246;21.054;2023-11-22T11:14:12;101752.75;;;-1.23;68.41
30897;BME280;64229;52.246;21.054;2023-11-22T11:16:39;101751.63;;;-1.20;68.23
30897;BME280;64229;52.246;21.054;2023-11-22T11:19:12;101754.00;;;-1.09;69.07
30897;BME280;64229;52.246;21.054;2023-11-22T11:21:39;101728.88;;;-1.20;67.99
30897;BME280;64229;52.246;21.054;2023-11-22T11:24:05;101759.41;;;-1.10;67.51
30897;BME280;64229;52.246;21.054;2023-11-22T11:26:33;101750.50;;;-1.18;67.08
30897;BME280;64229;52.246;21.054;2023-11-22T11:29:02;101740.19;;;-1.19;70.97
30897;BME280;64229;52.246;21.054;2023-11-22T11:31:32;101743.63;;;-1.19;67.56
30897;BME280;64229;52.246;21.054;2023-11-22T11:34:00;101733.84;;;-1.17;67.88
30897;BME280;64229;52.246;21.054;2023-11-22T11:36:28;101711.25;;;-1.09;68.73
30897;BME280;64229;52.246;21.054;2023-11-22T11:38:55;101724.75;;;-1.04;66.78
30897;BME280;64229;52.246;21.054;2023-11-22T11:41:29;101751.19;;;-0.90;67.49
30897;BME280;64229;52.246;21.054;2023-11-22T11:43:56;101743.50;;;-0.91;67.55
30897;BME280;64229;52.246;21.054;2023-11-22T11:46:22;101750.34;;;-0.72;67.47
30897;BME280;64229;52.246;21.054;2023-11-22T11:48:49;101753.97;;;-0.65;67.60
30897;BME280;64229;52.246;21.054;2023-11-22T11:51:16;101748.22;;;-0.69;65.03
30897;BME280;64229;52.246;21.054;2023-11-22T11:53:43;101735.22;;;-0.78;65.39
30897;BME280;64229;52.246;21.054;2023-11-22T11:56:09;101751.16;;;-0.72;66.22
30897;BME280;64229;52.246;21.054;2023-11-22T11:58:35;101745.03;;;-0.80;64.08
30897;BME280;64229;52.246;21.054;2023-11-22T12:01:00;101727.94;;;-0.93;64.49
30897;BME280;64229;52.246;21.054;2023-11-22T12:03:27;101721.72;;;-0.92;66.39
30897;BME280;64229;52.246;21.054;2023-11-22T12:05:53;101727.16;;;-0.85;67.38
30897;BME280;64229;52.246;21.054;2023-11-22T12:08:18;101737.00;;;-0.79;65.28
30897;BME280;64229;52.246;21.054;2023-11-22T12:10:44;101737.69;;;-0.77;65.36
30897;BME280;64229;52.246;21.054;2023-11-22T12:13:15;101713.25;;;-0.77;66.40
30897;BME280;64229;52.246;21.054;2023-11-22T12:15:41;101737.00;;;-0.53;66.29
30897;BME280;64229;52.246;21.054;2023-11-22T12:18:07;101726.25;;;-0.34;65.35
30897;BME280;64229;52.246;21.054;2023-11-22T12:20:32;101730.38;;;-0.31;65.49
30897;BME280;64229;52.246;21.054;2023-11-22T12:22:58;101732.31;;;-0.33;65.04
30897;BME280;64229;52.246;21.054;2023-11-22T12:25:27;101737.88;;;-0.36;65.35
30897;BME280;64229;52.246;21.054;2023-11-22T12:27:56;101756.78;;;-0.24;66.02
30897;BME280;64229;52.246;21.054;2023-11-22T12:30:34;101760.16;;;-0.06;65.53
30897;BME280;64229;52.246;21.054;2023-11-22T12:33:10;101765.78;;;0.15;63.79
30897;BME280;64229;52.246;21.054;2023-11-22T12:35:38;101768.94;;;0.27;62.15